Time;durP1;ratioP1;P1;durP2;ratioP2;P2;SDS_P1;SDS_P2;PMS_P1;PMS_P2;Temp;Humidity;BMP_temperature;BMP_pressure;BME280_temperature;BME280_humidity;BME280_pressure;Samples;Min_cycle;Max_cycle;Signal;HPM_P1;HPM_P2
2022/10/18 00:01:42;;;;;;;41.63;24.80;;;;;;;9.27;93.66;99934.39;2175211;82;21055;-84
2022/10/18 00:04:43;;;;;;;43.47;24.60;;;;;;;9.19;93.75;99932.81;2175219;82;20920;-84
2022/10/18 00:07:43;;;;;;;40.47;23.13;;;;;;;9.14;93.50;99927.87;2175264;82;21015;-84
2022/10/18 00:10:43;;;;;;;38.97;24.13;;;;;;;9.09;93.04;99934.64;2175256;82;20953;-83
2022/10/18 00:13:44;;;;;;;41.90;23.10;;;;;;;9.06;93.38;99928.44;2175454;82;20968;-84
2022/10/18 00:16:44;;;;;;;42.87;24.63;;;;;;;9.01;93.35;99929.99;2175289;82;20951;-83
2022/10/18 00:19:45;;;;;;;43.90;24.83;;;;;;;8.99;93.21;99923.84;2175306;82;20932;-83
2022/10/18 00:22:45;;;;;;;41.10;24.93;;;;;;;9.00;93.87;99923.89;2174901;82;21064;-84
2022/10/18 00:25:45;;;;;;;44.33;24.70;;;;;;;8.99;94.08;99926.45;2175143;82;21012;-82
2022/10/18 00:28:46;;;;;;;39.50;24.53;;;;;;;8.98;94.34;99926.86;2175803;82;20980;-84
2022/10/18 00:31:46;;;;;;;48.40;24.30;;;;;;;8.94;93.88;99925.87;2174519;82;21336;-84
2022/10/18 00:34:47;;;;;;;34.73;23.20;;;;;;;8.92;93.76;99924.92;2174995;82;20968;-85
2022/10/18 00:37:47;;;;;;;34.83;22.63;;;;;;;8.90;93.65;99922.69;2174711;82;20991;-84
2022/10/18 00:40:47;;;;;;;40.43;22.90;;;;;;;8.87;93.78;99923.88;2174698;82;20960;-85
2022/10/18 00:43:48;;;;;;;31.07;20.43;;;;;;;8.83;93.22;99925.91;2174659;82;21201;-84
2022/10/18 00:46:48;;;;;;;40.23;21.67;;;;;;;8.79;93.00;99921.84;2174959;82;21000;-84
2022/10/18 00:49:49;;;;;;;38.53;22.57;;;;;;;8.74;92.93;99913.86;2174094;82;21299;-84
2022/10/18 00:52:49;;;;;;;37.90;22.83;;;;;;;8.71;93.14;99916.35;2174165;82;20980;-83
2022/10/18 00:55:50;;;;;;;107.97;28.87;;;;;;;8.71;93.14;99916.35;2174997;82;21356;-82
2022/10/18 00:58:50;;;;;;;79.80;28.10;;;;;;;8.73;93.90;99913.39;2174598;82;21356;-84
2022/10/18 01:01:50;;;;;;;50.77;25.23;;;;;;;8.76;93.69;99907.41;2174821;82;20967;-84
2022/10/18 01:04:51;;;;;;;61.83;25.17;;;;;;;8.74;93.85;99907.77;2174931;82;20964;-85
2022/10/18 01:07:51;;;;;;;53.07;24.80;;;;;;;8.74;94.11;99909.06;2174560;82;21006;-82
2022/10/18 01:10:52;;;;;;;46.47;23.90;;;;;;;8.76;94.15;99915.22;2175004;82;21016;-83
2022/10/18 01:13:52;;;;;;;38.10;23.07;;;;;;;8.75;94.38;99904.33;2174790;82;20925;-81
2022/10/18 01:16:52;;;;;;;62.40;24.97;;;;;;;8.70;93.96;99908.07;2174823;82;21218;-82
2022/10/18 01:19:53;;;;;;;119.27;26.77;;;;;;;8.69;94.19;99901.09;2175040;82;20961;-85
2022/10/18 01:22:53;;;;;;;41.17;23.47;;;;;;;8.62;93.54;99901.25;2174613;82;20961;-83
2022/10/18 01:25:54;;;;;;;37.20;21.33;;;;;;;8.60;93.53;99896.41;2174815;82;21379;-86
2022/10/18 01:28:54;;;;;;;40.47;21.10;;;;;;;8.55;93.17;99890.56;2175111;82;20946;-84
2022/10/18 01:31:55;;;;;;;37.10;21.53;;;;;;;8.50;93.35;99890.41;2174936;82;21027;-85
2022/10/18 01:34:56;;;;;;;31.47;19.50;;;;;;;8.48;93.36;99887.27;2175070;82;20968;-84
2022/10/18 01:37:56;;;;;;;60.57;23.53;;;;;;;8.49;93.91;99885.14;2175060;82;20968;-84
2022/10/18 01:40:56;;;;;;;45.87;21.83;;;;;;;8.47;93.95;99888.98;2175303;82;20925;-85
2022/10/18 01:43:57;;;;;;;50.20;24.70;;;;;;;8.46;94.14;99892.83;2175372;82;20964;-83
2022/10/18 01:46:57;;;;;;;44.10;23.43;;;;;;;8.50;94.82;99889.52;2174981;82;21079;-84
2022/10/18 01:49:58;;;;;;;36.83;22.10;;;;;;;8.58;94.93;99885.47;2174301;82;20977;-85
2022/10/18 01:52:58;;;;;;;37.90;24.13;;;;;;;8.53;94.18;99884.42;2182410;81;21122;-84
2022/10/18 01:55:58;;;;;;;273.03;35.53;;;;;;;8.50;94.40;99882.59;2185850;82;20990;-81
2022/10/18 01:58:59;;;;;;;43.33;23.03;;;;;;;8.47;94.57;99875.09;2185455;82;20940;-84
2022/10/18 02:01:59;;;;;;;39.63;23.83;;;;;;;8.45;94.32;99875.45;2185235;81;20928;-84
2022/10/18 02:05:00;;;;;;;35.53;21.47;;;;;;;8.44;94.61;99870.66;2185413;82;20960;-83
2022/10/18 02:08:00;;;;;;;211.47;30.47;;;;;;;8.41;94.32;99870.97;2185344;81;20992;-83
2022/10/18 02:11:00;;;;;;;76.13;22.43;;;;;;;8.38;93.96;99865.65;2185079;82;21003;-84
2022/10/18 02:14:01;;;;;;;32.43;20.20;;;;;;;8.33;93.69;99865.48;2185049;82;21316;-81
2022/10/18 02:17:01;;;;;;;63.37;23.13;;;;;;;8.33;93.73;99868.08;2185188;82;21347;-85
2022/10/18 02:20:02;;;;;;;35.70;20.37;;;;;;;8.31;93.88;99861.48;2184582;82;20955;-85
2022/10/18 02:23:02;;;;;;;39.33;21.53;;;;;;;8.26;93.76;99860.84;2185459;82;20999;-85
2022/10/18 02:26:02;;;;;;;33.97;20.43;;;;;;;8.24;94.20;99859.48;2184919;81;20991;-84
2022/10/18 02:29:03;;;;;;;71.60;23.30;;;;;;;8.16;93.50;99856.13;2184939;81;21344;-84
2022/10/18 02:32:03;;;;;;;33.70;18.43;;;;;;;8.16;94.10;99857.02;2184929;82;20976;-83
2022/10/18 02:35:04;;;;;;;77.63;21.63;;;;;;;8.10;92.87;99849.41;2185057;81;20944;-85
2022/10/18 02:38:04;;;;;;;28.07;19.83;;;;;;;8.05;93.37;99855.73;2184919;82;20964;-85
2022/10/18 02:41:04;;;;;;;32.50;18.67;;;;;;;8.07;93.54;99852.77;2184845;82;21339;-85
2022/10/18 02:44:05;;;;;;;35.70;19.37;;;;;;;8.05;93.17;99847.93;2184915;82;20935;-82
2022/10/18 02:47:05;;;;;;;80.50;25.00;;;;;;;8.04;93.16;99851.77;2185037;82;21039;-84
2022/10/18 02:50:06;;;;;;;58.20;22.40;;;;;;;8.02;93.59;99850.83;2184743;81;21387;-83
2022/10/18 02:53:06;;;;;;;36.63;21.33;;;;;;;8.07;94.21;99854.08;2189798;81;21133;-84
2022/10/18 02:56:07;;;;;;;40.63;20.13;;;;;;;8.09;93.41;99852.83;2191829;81;20944;-86
2022/10/18 02:59:07;;;;;;;36.73;19.50;;;;;;;8.07;93.51;99850.17;2192119;81;20988;-82
2022/10/18 03:02:07;;;;;;;31.67;19.27;;;;;;;8.06;93.86;99852.72;2192197;81;21388;-83
2022/10/18 03:05:08;;;;;;;25.83;18.50;;;;;;;8.03;93.47;99848.28;2192236;81;21327;-83
2022/10/18 03:08:08;;;;;;;39.67;18.83;;;;;;;8.02;93.60;99845.62;2191932;81;20944;-83
2022/10/18 03:11:09;;;;;;;43.37;20.50;;;;;;;8.01;93.47;99848.64;2192023;81;20963;-82
2022/10/18 03:14:09;;;;;;;32.23;18.97;;;;;;;7.97;93.57;99850.23;2191927;81;20960;-83
2022/10/18 03:17:09;;;;;;;36.30;19.77;;;;;;;7.99;94.21;99852.90;2192095;81;20963;-84
2022/10/18 03:20:10;;;;;;;35.97;19.83;;;;;;;7.99;93.98;99850.30;2192233;81;20928;-85
2022/10/18 03:23:10;;;;;;;33.60;19.40;;;;;;;7.99;94.12;99854.20;2191729;81;21006;-83
2022/10/18 03:26:11;;;;;;;26.23;18.87;;;;;;;7.99;94.03;99852.90;2191880;81;20963;-84
2022/10/18 03:29:11;;;;;;;28.53;18.87;;;;;;;7.93;93.51;99849.65;2192313;81;20943;-82
2022/10/18 03:32:12;;;;;;;83.60;20.20;;;;;;;7.92;93.82;99850.89;2192619;81;20972;-82
2022/10/18 03:35:12;;;;;;;26.23;17.77;;;;;;;7.95;94.64;99852.31;2192688;81;20955;-83
2022/10/18 03:38:13;;;;;;;41.23;18.87;;;;;;;7.95;94.22;99850.59;2192683;81;20948;-84
2022/10/18 03:41:13;;;;;;;66.73;20.37;;;;;;;7.92;93.97;99849.18;2191396;81;20919;-83
2022/10/18 03:44:13;;;;;;;113.80;21.17;;;;;;;7.91;93.86;99852.61;2191114;81;20920;-84
2022/10/18 03:47:14;;;;;;;31.10;17.67;;;;;;;7.93;94.26;99866.96;2191951;81;20995;-83
2022/10/18 03:50:16;;;;;;;59.87;19.63;;;;;;;7.89;94.01;99865.95;2161225;81;20990;-84
2022/10/18 03:53:17;;;;;;;33.53;18.97;;;;;;;7.85;93.94;99872.28;2178504;81;20976;-83
2022/10/18 03:56:17;;;;;;;34.10;17.23;;;;;;;7.82;93.71;99873.05;2173141;82;20991;-83
2022/10/18 03:59:17;;;;;;;26.57;17.93;;;;;;;7.80;93.83;99876.00;2172570;82;20944;-84
2022/10/18 04:02:18;;;;;;;35.87;17.70;;;;;;;7.82;94.14;99884.75;2173183;82;20940;-84
2022/10/18 04:05:18;;;;;;;35.03;18.17;;;;;;;7.83;94.28;99879.13;2173141;82;20989;-84
2022/10/18 04:08:19;;;;;;;28.23;16.77;;;;;;;7.84;94.11;99879.61;2173547;82;20991;-82
2022/10/18 04:11:19;;;;;;;100.33;22.60;;;;;;;7.78;93.30;99875.44;2173276;82;20956;-84
2022/10/18 04:14:20;;;;;;;45.73;17.83;;;;;;;7.72;93.20;99877.38;2173029;82;20956;-84
2022/10/18 04:17:20;;;;;;;43.73;17.63;;;;;;;7.66;93.35;99875.42;2173680;82;20930;-83
2022/10/18 04:20:20;;;;;;;24.43;16.63;;;;;;;7.63;93.24;99874.42;2173344;82;20948;-84
2022/10/18 04:23:21;;;;;;;29.10;15.83;;;;;;;7.59;93.20;99871.22;2173016;82;20987;-83
2022/10/18 04:26:21;;;;;;;27.07;15.87;;;;;;;7.58;93.33;99870.34;2172913;82;21343;-84
2022/10/18 04:29:22;;;;;;;97.47;22.37;;;;;;;7.58;93.21;99871.63;2172665;82;21301;-84
2022/10/18 04:32:22;;;;;;;27.03;16.03;;;;;;;7.55;93.09;99867.61;2172992;82;20982;-83
2022/10/18 04:35:24;;;;;;;81.70;17.73;;;;;;;7.53;93.00;99870.98;2173153;82;21304;-83
2022/10/18 04:38:23;;;;;;;32.60;15.33;;;;;;;7.51;93.02;99870.92;2173435;82;20944;-82
2022/10/18 04:41:23;;;;;;;28.77;16.10;;;;;;;7.44;92.50;99874.09;2172551;82;20979;-83
2022/10/18 04:44:24;;;;;;;25.23;14.43;;;;;;;7.43;92.84;99873.62;2173296;82;21443;-83
2022/10/18 04:47:24;;;;;;;28.80;14.50;;;;;;;7.41;92.78;99867.89;2173345;82;21039;-84
2022/10/18 04:50:25;;;;;;;99.77;18.70;;;;;;;7.39;92.76;99869.13;2174377;82;21032;-83
2022/10/18 04:53:25;;;;;;;34.47;15.53;;;;;;;7.39;93.35;99873.02;2184203;81;21050;-84
2022/10/18 04:56:26;;;;;;;25.30;16.03;;;;;;;7.35;92.30;99868.11;2191162;81;20939;-83
2022/10/18 04:59:26;;;;;;;49.73;15.57;;;;;;;7.28;92.48;99864.80;2191443;81;20983;-84
2022/10/18 05:02:26;;;;;;;111.37;16.87;;;;;;;7.27;92.60;99869.92;2191411;81;20940;-84
2022/10/18 05:05:27;;;;;;;41.53;15.97;;;;;;;7.23;92.39;99866.72;2191082;81;20931;-80
2022/10/18 05:08:27;;;;;;;20.53;13.53;;;;;;;7.18;92.51;99863.05;2191371;81;20991;-84
2022/10/18 05:11:28;;;;;;;21.43;15.07;;;;;;;7.18;92.37;99861.34;2191894;81;20967;-84
2022/10/18 05:14:28;;;;;;;21.00;14.10;;;;;;;7.16;92.32;99861.69;2190515;81;20948;-85
2022/10/18 05:17:29;;;;;;;29.57;14.77;;;;;;;7.13;92.11;99858.08;2191067;81;20987;-84
2022/10/18 05:20:29;;;;;;;23.30;14.07;;;;;;;7.15;92.72;99860.33;2190773;81;20976;-88
2022/10/18 05:23:30;;;;;;;70.37;17.20;;;;;;;7.17;92.67;99859.98;2189712;81;20963;-84
2022/10/18 05:26:30;;;;;;;97.13;22.87;;;;;;;7.19;92.57;99855.73;2189771;81;20943;-89
2022/10/18 05:29:31;;;;;;;42.23;27.07;;;;;;;7.22;92.84;99859.34;2190093;81;20959;-85
2022/10/18 05:32:31;;;;;;;25.23;16.30;;;;;;;7.28;92.65;99863.91;2190144;81;20955;-85
2022/10/18 05:35:31;;;;;;;25.37;16.43;;;;;;;7.31;92.27;99861.44;2190724;81;20951;-85
2022/10/18 05:38:32;;;;;;;94.23;18.03;;;;;;;7.32;92.43;99862.80;2190238;81;21403;-85
2022/10/18 05:41:32;;;;;;;25.47;14.47;;;;;;;7.43;92.37;99872.32;2189841;81;20995;-83
2022/10/18 05:44:33;;;;;;;26.33;14.57;;;;;;;7.48;92.00;99864.71;2189083;81;20979;-83
2022/10/18 05:47:33;;;;;;;130.10;18.03;;;;;;;7.51;91.87;99859.64;2191158;81;20982;-83
2022/10/18 05:50:34;;;;;;;40.87;15.10;;;;;;;7.50;91.66;99861.35;2189737;81;20947;-86
2022/10/18 05:53:34;;;;;;;21.33;13.30;;;;;;;7.54;91.69;99864.55;2178467;81;21031;-86
2022/10/18 05:56:34;;;;;;;20.77;14.73;;;;;;;7.58;91.50;99861.66;2172392;82;21304;-85
2022/10/18 05:59:35;;;;;;;44.30;17.43;;;;;;;7.62;91.50;99864.44;2172328;82;21035;-87
2022/10/18 06:02:35;;;;;;;54.30;18.97;;;;;;;7.70;91.90;99867.34;2171316;82;21003;-78
2022/10/18 06:05:36;;;;;;;82.43;51.90;;;;;;;7.74;91.67;99869.23;2172356;82;20960;-88
2022/10/18 06:08:36;;;;;;;45.87;21.00;;;;;;;7.78;91.70;99863.33;2172134;82;20987;-85
2022/10/18 06:11:36;;;;;;;26.43;17.00;;;;;;;7.82;91.64;99857.87;2172168;82;20956;-87
2022/10/18 06:14:37;;;;;;;37.70;16.03;;;;;;;7.90;91.62;99853.84;2172340;82;20944;-88
2022/10/18 06:17:38;;;;;;;21.97;14.17;;;;;;;7.98;91.71;99852.42;2172645;82;20956;-88
2022/10/18 06:20:38;;;;;;;25.30;13.57;;;;;;;8.07;91.60;99855.38;2172221;82;20992;-88
2022/10/18 06:23:38;;;;;;;639.33;58.77;;;;;;;8.13;91.63;99858.62;2172173;82;21012;-87
2022/10/18 06:26:39;;;;;;;33.63;14.47;;;;;;;8.22;91.88;99852.05;2172309;82;20964;-88
2022/10/18 06:29:42;;;;;;;25.60;15.30;;;;;;;8.33;91.83;99843.75;2148035;82;20991;-87
2022/10/18 06:32:42;;;;;;;126.90;24.80;;;;;;;8.42;91.57;99846.72;2172077;82;20972;-87
2022/10/18 06:35:42;;;;;;;53.27;20.20;;;;;;;8.53;91.61;99855.80;2171669;82;21003;-86
2022/10/18 06:38:42;;;;;;;22.37;15.47;;;;;;;8.65;91.38;99857.95;2172195;82;20944;-86
2022/10/18 06:41:49;;;;;;;23.57;14.90;;;;;;;8.76;91.21;99848.42;2171900;82;21319;-87
2022/10/18 06:44:49;;;;;;;41.57;18.63;;;;;;;8.84;91.04;99849.57;2171861;82;20928;-87
2022/10/18 06:47:50;;;;;;;115.50;20.57;;;;;;;8.97;91.01;99858.69;2171973;82;20991;-86
2022/10/18 06:50:51;;;;;;;45.97;19.27;;;;;;;9.09;91.08;99856.91;2172114;82;21490;-88
2022/10/18 06:53:58;;;;;;;33.97;17.70;;;;;;;9.24;91.49;99852.22;2172274;82;21007;-88
2022/10/18 06:57:01;;;;;;;54.23;18.50;;;;;;;9.36;91.29;99857.83;2147984;82;21020;-86
2022/10/18 07:00:00;;;;;;;25.67;14.63;;;;;;;9.47;91.20;99852.96;2172209;82;21003;-84
2022/10/18 07:03:00;;;;;;;21.03;14.60;;;;;;;9.56;91.13;99852.88;2172684;82;20971;-87
2022/10/18 07:06:03;;;;;;;28.60;14.73;;;;;;;9.65;91.19;99854.00;2149132;82;21379;-87
2022/10/18 07:09:05;;;;;;;20.53;15.13;;;;;;;9.77;91.11;99860.48;2170394;82;20971;-87
2022/10/18 07:12:07;;;;;;;20.50;14.55;;;;;;;9.91;91.11;99859.60;2123082;82;21425;-85
2022/10/18 07:15:08;;;;;;;29.60;18.97;;;;;;;10.04;91.08;99863.46;2171959;82;21268;-83
2022/10/18 07:18:08;;;;;;;39.13;18.50;;;;;;;10.11;91.00;99862.39;2171985;82;20938;-85
2022/10/18 07:21:09;;;;;;;28.73;14.07;;;;;;;10.22;91.15;99857.52;2173019;82;20964;-85
2022/10/18 07:24:09;;;;;;;17.67;12.60;;;;;;;10.30;91.15;99857.74;2172729;82;20991;-84
2022/10/18 07:27:09;;;;;;;18.10;13.63;;;;;;;10.39;91.04;99859.31;2172799;82;21038;-85
2022/10/18 07:30:10;;;;;;;22.87;13.40;;;;;;;10.48;90.84;99851.77;2172033;82;21060;-85
2022/10/18 07:33:10;;;;;;;22.10;13.03;;;;;;;10.59;90.89;99849.04;2172723;82;20960;-86
2022/10/18 07:36:11;;;;;;;21.33;14.00;;;;;;;10.70;90.40;99849.33;2171938;82;21098;-82
2022/10/18 07:39:14;;;;;;;22.47;13.00;;;;;;;10.87;90.56;99844.56;2172622;82;21050;-86
2022/10/18 07:42:16;;;;;;;21.42;13.35;;;;;;;11.07;90.88;99842.05;2148029;82;20952;-85
2022/10/18 07:45:27;;;;;;;13.78;11.90;;;;;;;11.28;90.68;99847.84;2126276;82;21027;-85
2022/10/18 07:48:22;;;;;;;41.70;14.28;;;;;;;11.48;90.89;99851.83;2124739;82;21426;-85
2022/10/18 07:51:23;;;;;;;14.87;11.60;;;;;;;11.70;90.85;99842.76;2173004;82;20936;-83
2022/10/18 07:54:25;;;;;;;15.85;12.80;;;;;;;12.01;91.18;99843.48;2184501;81;21066;-85
2022/10/18 07:57:31;;;;;;;19.98;12.78;;;;;;;12.37;90.85;99832.51;2160240;81;21022;-87
2022/10/18 08:00:31;;;;;;;50.90;13.90;;;;;;;12.70;91.38;99836.21;2160089;81;20987;-84
2022/10/18 08:03:31;;;;;;;60.15;14.47;;;;;;;13.04;91.64;99829.88;2189444;81;20983;-86
2022/10/18 08:06:34;;;;;;;32.15;12.60;;;;;;;13.40;90.89;99824.83;2189398;81;20967;-87
2022/10/18 08:09:35;;;;;;;26.10;15.40;;;;;;;13.81;90.30;99820.20;2190114;81;20943;-85
2022/10/18 08:12:40;;;;;;;13.35;8.70;;;;;;;14.27;87.05;99817.80;2159189;81;21587;-86
2022/10/18 08:15:40;;;;;;;12.65;8.03;;;;;;;14.76;85.57;99813.60;2160017;81;20959;-86
2022/10/18 08:18:42;;;;;;;12.15;7.75;;;;;;;15.08;82.63;99806.02;2158718;81;21335;-87
2022/10/18 08:21:42;;;;;;;13.48;7.45;;;;;;;15.36;79.76;99813.28;2189358;81;20962;-86
2022/10/18 08:24:43;;;;;;;12.93;7.00;;;;;;;15.66;78.83;99819.27;2187608;81;21054;-84
2022/10/18 08:27:55;;;;;;;8.15;6.90;;;;;;;16.01;77.16;99808.95;2188952;81;20967;-86
2022/10/18 08:31:03;;;;;;;17.30;7.47;;;;;;;16.24;75.75;99802.47;2188865;81;20970;-85
2022/10/18 08:34:06;;;;;;;21.37;9.00;;;;;;;16.43;74.72;99802.98;2160276;81;21002;-85
2022/10/18 08:37:09;;;;;;;17.17;9.75;;;;;;;16.65;73.25;99792.12;2158238;81;20991;-85
2022/10/18 08:40:14;;;;;;;18.62;9.35;;;;;;;16.94;70.90;99789.55;2190520;81;21023;-85
2022/10/18 08:43:15;;;;;;;11.90;8.03;;;;;;;17.20;70.91;99784.28;2159430;81;20971;-86
2022/10/18 08:46:20;;;;;;;15.83;8.23;;;;;;;17.40;68.94;99779.03;2143653;81;20970;-87
2022/10/18 08:49:20;;;;;;;35.73;10.70;;;;;;;17.57;68.74;99778.56;2160145;81;20959;-85
2022/10/18 08:52:23;;;;;;;9.93;7.00;;;;;;;17.82;68.36;99785.59;2189743;81;20943;-84
2022/10/18 08:55:23;;;;;;;8.05;6.42;;;;;;;18.03;66.44;99780.69;2149635;82;21042;-86
2022/10/18 08:58:25;;;;;;;11.00;7.62;;;;;;;18.17;61.40;99783.27;2172727;82;20948;-86
2022/10/18 09:01:24;;;;;;;12.70;8.18;;;;;;;18.33;64.56;99774.43;2172897;82;20929;-83
2022/10/18 09:04:28;;;;;;;16.05;7.12;;;;;;;18.48;62.96;99769.51;2173132;82;21390;-85
2022/10/18 09:07:32;;;;;;;10.50;6.92;;;;;;;18.50;58.00;99769.50;2149405;82;21030;-84
2022/10/18 09:10:37;;;;;;;11.30;6.58;;;;;;;18.55;60.12;99769.91;2126524;82;20912;-85
2022/10/18 09:13:40;;;;;;;11.95;6.00;;;;;;;18.71;60.41;99768.08;2148448;82;20967;-86
2022/10/18 09:16:43;;;;;;;10.63;6.90;;;;;;;18.88;59.07;99758.27;2171909;82;21672;-85
2022/10/18 09:19:44;;;;;;;11.63;5.47;;;;;;;19.04;57.74;99764.31;2172460;82;20991;-86
2022/10/18 09:22:44;;;;;;;11.57;5.78;;;;;;;19.05;54.87;99753.72;2173093;82;20928;-84
2022/10/18 09:25:47;;;;;;;13.55;6.67;;;;;;;19.19;57.31;99759.38;2172585;82;20936;-86
2022/10/18 09:29:06;;;;;;;9.20;5.75;;;;;;;19.29;54.29;99754.44;2125731;82;20968;-86
2022/10/18 09:31:51;;;;;;;11.35;6.33;;;;;;;19.37;53.14;99745.53;2143236;82;21026;-85
2022/10/18 09:34:52;;;;;;;18.85;14.33;;;;;;;19.49;55.71;99731.74;2173574;82;20991;-86
2022/10/18 09:37:54;;;;;;;167.87;23.77;;;;;;;19.68;54.81;99728.92;2149611;82;20994;-85
2022/10/18 09:40:57;;;;;;;11.25;6.28;;;;;;;19.86;54.57;99736.23;2172493;82;21347;-85
2022/10/18 09:43:58;;;;;;;8.65;5.42;;;;;;;19.94;50.37;99733.05;2172975;82;20996;-83
2022/10/18 09:46:58;;;;;;;9.23;6.40;;;;;;;19.97;53.09;99723.77;2172236;82;21391;-86
2022/10/18 09:50:00;;;;;;;9.23;5.70;;;;;;;20.08;52.03;99719.20;2149066;82;20908;-86
2022/10/18 09:53:05;;;;;;;10.60;5.78;;;;;;;20.15;51.49;99712.05;2172045;81;21395;-85
2022/10/18 09:56:05;;;;;;;21.57;6.03;;;;;;;20.20;53.10;99713.74;2172265;82;20974;-85
2022/10/18 09:59:07;;;;;;;10.60;6.20;;;;;;;20.32;52.27;99710.92;2148943;82;20912;-87
2022/10/18 10:02:07;;;;;;;11.90;6.70;;;;;;;20.34;49.91;99710.45;2172056;82;20984;-82
2022/10/18 10:05:08;;;;;;;8.33;5.80;;;;;;;20.33;50.08;99702.52;2172790;82;21043;-86
2022/10/18 10:08:11;;;;;;;11.57;6.12;;;;;;;20.30;48.65;99702.56;2172539;82;21027;-85
2022/10/18 10:11:11;;;;;;;16.23;6.45;;;;;;;20.25;47.12;99696.45;2173552;82;21301;-85
2022/10/18 10:14:12;;;;;;;8.70;6.12;;;;;;;20.21;49.25;99694.29;2172581;82;21332;-85
2022/10/18 10:17:12;;;;;;;12.00;5.60;;;;;;;20.28;50.04;99685.36;2173019;82;21024;-85
2022/10/18 10:20:14;;;;;;;9.50;6.20;;;;;;;20.34;49.87;99685.27;2148576;82;20968;-86
2022/10/18 10:23:18;;;;;;;10.08;6.70;;;;;;;20.46;49.60;99678.06;2172590;82;21380;-86
2022/10/18 10:26:18;;;;;;;14.78;9.40;;;;;;;20.46;48.80;99669.66;2173133;82;21023;-86
2022/10/18 10:29:19;;;;;;;10.30;6.42;;;;;;;20.49;49.70;99674.04;2172429;82;20952;-85
2022/10/18 10:32:19;;;;;;;10.28;6.05;;;;;;;20.51;48.72;99668.27;2172555;82;20963;-85
2022/10/18 10:35:19;;;;;;;14.35;6.37;;;;;;;20.53;48.57;99663.81;2172712;82;21012;-84
2022/10/18 10:38:20;;;;;;;10.58;6.40;;;;;;;20.55;47.39;99652.73;2173177;82;21016;-84
2022/10/18 10:41:24;;;;;;;18.02;6.65;;;;;;;20.48;46.45;99657.25;2172597;82;20964;-86
2022/10/18 10:44:24;;;;;;;7.85;6.30;;;;;;;20.50;48.06;99649.27;2171568;82;21019;-78
2022/10/18 10:47:26;;;;;;;13.83;7.33;;;;;;;20.46;47.28;99641.81;2172510;82;20988;-85
2022/10/18 10:50:29;;;;;;;9.20;6.60;;;;;;;20.46;48.62;99642.27;2149462;82;20988;-85
2022/10/18 10:53:29;;;;;;;11.88;6.67;;;;;;;20.58;48.41;99623.50;2152465;81;20979;-85
2022/10/18 10:56:30;;;;;;;36.10;8.78;;;;;;;20.66;47.36;99626.45;2190983;81;20951;-84
2022/10/18 10:59:30;;;;;;;12.05;7.30;;;;;;;20.75;47.82;99620.57;2191691;81;20967;-84
2022/10/18 11:02:30;;;;;;;11.53;7.05;;;;;;;20.81;46.83;99612.09;2191956;81;20916;-85
2022/10/18 11:05:31;;;;;;;12.25;6.83;;;;;;;20.83;47.08;99610.28;2193239;81;20986;-84
2022/10/18 11:08:31;;;;;;;9.83;6.85;;;;;;;20.86;46.82;99610.23;2193524;81;21072;-84
2022/10/18 11:11:35;;;;;;;8.75;6.50;;;;;;;20.92;47.76;99601.28;2189903;81;20996;-84
2022/10/18 11:14:37;;;;;;;18.42;7.12;;;;;;;20.97;48.08;99602.95;2160193;81;20999;-86
2022/10/18 11:17:37;;;;;;;9.05;7.30;;;;;;;21.02;46.78;99594.91;2190074;81;21023;-85
2022/10/18 11:20:40;;;;;;;12.00;6.87;;;;;;;21.08;47.73;99590.81;2190273;81;20939;-83
2022/10/18 11:23:46;;;;;;;9.85;6.80;;;;;;;21.08;46.47;99586.83;2160623;81;21355;-84
2022/10/18 11:26:46;;;;;;;10.32;6.45;;;;;;;21.06;46.80;99582.00;2191039;81;20991;-85
2022/10/18 11:29:46;;;;;;;8.75;6.45;;;;;;;21.06;45.92;99582.45;2190923;81;20968;-84
2022/10/18 11:32:47;;;;;;;15.45;7.85;;;;;;;21.06;47.59;99576.69;2190245;81;20955;-85
2022/10/18 11:35:47;;;;;;;20.12;6.97;;;;;;;21.05;46.80;99578.92;2191023;81;21347;-85
2022/10/18 11:38:48;;;;;;;12.58;6.87;;;;;;;21.01;46.77;99575.03;2190231;81;21048;-85
2022/10/18 11:41:48;;;;;;;10.32;6.95;;;;;;;21.02;46.24;99572.80;2190864;81;20968;-85
2022/10/18 11:44:49;;;;;;;9.43;6.60;;;;;;;21.01;46.81;99564.41;2190346;81;21502;-85
2022/10/18 11:47:49;;;;;;;11.38;6.15;;;;;;;20.96;45.84;99568.48;2190705;81;21147;-84
2022/10/18 11:50:50;;;;;;;7.83;6.00;;;;;;;20.93;47.30;99561.91;2190381;81;20952;-84
2022/10/18 11:53:50;;;;;;;10.10;6.60;;;;;;;20.99;47.17;99553.38;2186183;81;21022;-84
2022/10/18 11:56:56;;;;;;;10.45;6.55;;;;;;;21.01;47.14;99546.70;2171756;82;20994;-84
2022/10/18 11:59:56;;;;;;;16.17;7.03;;;;;;;20.97;46.66;99537.05;2149656;82;20980;-84
2022/10/18 12:02:56;;;;;;;10.03;6.15;;;;;;;20.96;47.04;99532.65;2172458;82;20944;-85
2022/10/18 12:05:57;;;;;;;11.18;6.42;;;;;;;20.94;47.07;99529.16;2172314;82;21308;-85
2022/10/18 12:08:58;;;;;;;10.13;5.90;;;;;;;20.95;47.05;99525.59;2170723;82;20987;-83
2022/10/18 12:12:00;;;;;;;10.38;6.08;;;;;;;20.98;46.40;99522.43;2146289;82;20952;-82
2022/10/18 12:15:00;;;;;;;15.15;6.60;;;;;;;20.99;47.15;99522.84;2169922;82;20937;-81
2022/10/18 12:18:00;;;;;;;14.05;7.37;;;;;;;21.03;46.98;99516.16;2169266;82;21734;-82
2022/10/18 12:21:01;;;;;;;8.63;7.33;;;;;;;21.04;47.38;99513.92;2169564;82;20988;-83
2022/10/18 12:24:01;;;;;;;15.43;8.10;;;;;;;21.10;46.81;99504.05;2170194;82;21003;-84
2022/10/18 12:27:05;;;;;;;17.25;6.70;;;;;;;21.08;46.02;99499.69;2170800;82;20928;-84
2022/10/18 12:30:05;;;;;;;12.73;7.53;;;;;;;21.08;46.68;99503.66;2170128;82;21359;-84
2022/10/18 12:33:06;;;;;;;9.85;6.47;;;;;;;21.12;46.56;99495.61;2169840;82;21399;-85
2022/10/18 12:36:06;;;;;;;10.13;7.00;;;;;;;21.37;46.91;99490.69;2170343;82;20967;-85
2022/10/18 12:39:07;;;;;;;8.18;6.95;;;;;;;21.55;45.62;99483.64;2170422;82;21324;-83
2022/10/18 12:42:07;;;;;;;10.00;6.83;;;;;;;21.53;45.40;99485.46;2171876;82;20992;-83
2022/10/18 12:45:07;;;;;;;9.68;7.42;;;;;;;21.59;46.09;99483.13;2172847;82;20987;-85
2022/10/18 12:48:08;;;;;;;9.88;7.42;;;;;;;21.58;45.73;99478.72;2172450;82;21055;-84
2022/10/18 12:51:08;;;;;;;26.60;8.85;;;;;;;21.50;45.30;99467.39;2172987;82;20960;-84
2022/10/18 12:54:09;;;;;;;15.30;8.65;;;;;;;21.44;45.46;99464.88;2173111;82;21032;-83
2022/10/18 12:57:09;;;;;;;8.08;6.92;;;;;;;21.44;44.16;99461.77;2171749;82;21021;-76
2022/10/18 13:00:09;;;;;;;13.78;7.62;;;;;;;21.30;44.48;99466.50;2171256;82;21336;-76
2022/10/18 13:03:10;;;;;;;28.30;9.30;;;;;;;21.32;44.94;99456.72;2171467;82;20936;-76
2022/10/18 13:06:10;;;;;;;11.80;7.37;;;;;;;21.36;44.44;99454.88;2172611;82;20991;-83
2022/10/18 13:09:11;;;;;;;39.53;18.82;;;;;;;21.33;45.11;99446.97;2173096;82;20979;-84
2022/10/18 13:12:11;;;;;;;26.82;9.78;;;;;;;21.39;45.07;99440.20;2173188;82;21324;-80
2022/10/18 13:15:12;;;;;;;21.90;10.15;;;;;;;21.49;44.61;99435.97;2172660;82;20928;-84
2022/10/18 13:18:12;;;;;;;15.08;10.75;;;;;;;21.45;45.33;99431.64;2172380;82;20992;-83
2022/10/18 13:21:15;;;;;;;15.03;9.88;;;;;;;21.46;45.26;99422.77;2173025;82;20943;-84
2022/10/18 13:24:16;;;;;;;18.10;13.25;;;;;;;21.49;44.68;99424.02;2172559;82;20913;-82
2022/10/18 13:27:16;;;;;;;16.37;8.80;;;;;;;21.41;44.64;99420.67;2172372;82;21007;-83
2022/10/18 13:30:17;;;;;;;20.62;10.15;;;;;;;21.41;45.38;99411.38;2173233;82;20948;-80
2022/10/18 13:33:17;;;;;;;10.05;6.75;;;;;;;21.44;45.78;99411.30;2173166;82;20936;-79
2022/10/18 13:36:17;;;;;;;12.07;7.33;;;;;;;21.58;45.43;99405.66;2172019;82;20901;-83
2022/10/18 13:39:18;;;;;;;15.15;7.75;;;;;;;21.62;45.01;99393.60;2172713;82;20971;-83
2022/10/18 13:42:19;;;;;;;12.40;7.67;;;;;;;21.62;45.01;99394.05;2173372;82;20956;-84
2022/10/18 13:45:21;;;;;;;15.28;7.15;;;;;;;21.53;45.20;99392.95;2172814;82;21702;-84
2022/10/18 13:48:22;;;;;;;18.90;8.00;;;;;;;21.42;45.18;99385.69;2172628;82;21088;-82
2022/10/18 13:51:25;;;;;;;10.72;7.37;;;;;;;21.40;45.29;99391.03;2173121;82;20991;-82
2022/10/18 13:54:25;;;;;;;11.88;7.37;;;;;;;21.39;45.57;99389.29;2173002;82;20952;-82
2022/10/18 13:57:26;;;;;;;16.15;7.47;;;;;;;21.31;46.06;99385.94;2172922;82;20940;-82
2022/10/18 14:00:27;;;;;;;13.80;8.58;;;;;;;21.18;45.91;99385.77;2172663;82;20959;-82